sensor_id;sensor_type;location;lat;lon;timestamp;pressure;altitude;pressure_sealevel;temperature;humidity
8318;BME280;4196;48.926;8.964;2023-12-07T00:00:14;99419.84;;;0.87;100.00
8318;BME280;4196;48.926;8.964;2023-12-07T00:03:00;99443.69;;;1.08;100.00
8318;BME280;4196;48.926;8.964;2023-12-07T00:05:47;99436.84;;;1.07;100.00
8318;BME280;4196;48.926;8.964;2023-12-07T00:08:33;99436.91;;;1.09;100.00
8318;BME280;4196;48.926;8.964;2023-12-07T00:11:22;99426.66;;;1.07;100.00
8318;BME280;4196;48.926;8.964;2023-12-07T00:14:09;99422.81;;;0.96;100.00
8318;BME280;4196;48.926;8.964;2023-12-07T00:16:55;99432.81;;;1.12;100.00
8318;BME280;4196;48.926;8.964;2023-12-07T00:19:42;99439.19;;;1.03;100.00
8318;BME280;4196;48.926;8.964;2023-12-07T00:22:29;99427.00;;;0.95;100.00
8318;BME280;4196;48.926;8.964;2023-12-07T00:25:15;99429.63;;;0.97;100.00
8318;BME280;4196;48.926;8.964;2023-12-07T00:28:02;99444.19;;;1.20;100.00
8318;BME280;4196;48.926;8.964;2023-12-07T00:30:50;99445.69;;;1.15;100.00
8318;BME280;4196;48.926;8.964;2023-12-07T00:33:37;99441.19;;;1.31;100.00
8318;BME280;4196;48.926;8.964;2023-12-07T00:36:23;99431.50;;;1.22;100.00
8318;BME280;4196;48.926;8.964;2023-12-07T00:39:10;99444.69;;;1.33;100.00
8318;BME280;4196;48.926;8.964;2023-12-07T00:41:56;99427.75;;;1.14;100.00
8318;BME280;4196;48.926;8.964;2023-12-07T00:44:43;99450.53;;;1.09;100.00
8318;BME280;4196;48.926;8.964;2023-12-07T00:47:31;99442.88;;;1.09;100.00
8318;BME280;4196;48.926;8.964;2023-12-07T00:50:17;99452.16;;;1.07;100.00
8318;BME280;4196;48.926;8.964;2023-12-07T00:53:04;99448.66;;;1.05;100.00
8318;BME280;4196;48.926;8.964;2023-12-07T00:55:50;99449.34;;;1.01;100.00
8318;BME280;4196;48.926;8.964;2023-12-07T00:58:37;99455.63;;;1.09;100.00
8318;BME280;4196;48.926;8.964;2023-12-07T01:01:25;99459.50;;;1.00;100.00
8318;BME280;4196;48.926;8.964;2023-12-07T01:04:11;99447.28;;;0.92;100.00
8318;BME280;4196;48.926;8.964;2023-12-07T01:06:58;99470.94;;;1.09;100.00
8318;BME280;4196;48.926;8.964;2023-12-07T01:09:45;99459.41;;;0.98;100.00
8318;BME280;4196;48.926;8.964;2023-12-07T01:12:32;99426.72;;;0.68;100.00
8318;BME280;4196;48.926;8.964;2023-12-07T01:15:18;99469.59;;;0.98;100.00
8318;BME280;4196;48.926;8.964;2023-12-07T01:18:05;99477.56;;;1.06;100.00
8318;BME280;4196;48.926;8.964;2023-12-07T01:20:52;99485.53;;;1.13;100.00
8318;BME280;4196;48.926;8.964;2023-12-07T01:23:38;99479.66;;;1.14;100.00
8318;BME280;4196;48.926;8.964;2023-12-07T01:26:25;99485.53;;;1.13;100.00
8318;BME280;4196;48.926;8.964;2023-12-07T01:29:11;99430.72;;;0.83;100.00
8318;BME280;4196;48.926;8.964;2023-12-07T01:32:00;99486.50;;;1.15;100.00
8318;BME280;4196;48.926;8.964;2023-12-07T01:34:46;99479.00;;;0.99;100.00
8318;BME280;4196;48.926;8.964;2023-12-07T01:37:33;99492.16;;;1.08;100.00
8318;BME280;4196;48.926;8.964;2023-12-07T01:40:20;99476.09;;;0.70;100.00
8318;BME280;4196;48.926;8.964;2023-12-07T01:43:06;99478.53;;;0.48;100.00
8318;BME280;4196;48.926;8.964;2023-12-07T01:45:55;99487.28;;;0.35;100.00
8318;BME280;4196;48.926;8.964;2023-12-07T01:48:43;99492.56;;;0.20;100.00
8318;BME280;4196;48.926;8.964;2023-12-07T01:51:30;99478.06;;;0.00;100.00
8318;BME280;4196;48.926;8.964;2023-12-07T01:54:17;99464.59;;;-0.15;100.00
8318;BME280;4196;48.926;8.964;2023-12-07T01:57:04;99504.75;;;-0.10;100.00
8318;BME280;4196;48.926;8.964;2023-12-07T01:59:51;99511.44;;;-0.12;100.00
8318;BME280;4196;48.926;8.964;2023-12-07T02:02:37;99506.13;;;-0.16;100.00
8318;BME280;4196;48.926;8.964;2023-12-07T02:05:24;99501.25;;;-0.30;100.00
8318;BME280;4196;48.926;8.964;2023-12-07T02:08:12;99499.00;;;-0.41;100.00
8318;BME280;4196;48.926;8.964;2023-12-07T02:10:58;99468.84;;;-0.69;100.00
8318;BME280;4196;48.926;8.964;2023-12-07T02:13:45;99494.66;;;-0.62;100.00
8318;BME280;4196;48.926;8.964;2023-12-07T02:16:39;99495.06;;;-0.70;100.00
8318;BME280;4196;48.926;8.964;2023-12-07T02:19:52;99502.63;;;-0.72;100.00
8318;BME280;4196;48.926;8.964;2023-12-07T02:22:43;99504.28;;;-0.73;100.00
8318;BME280;4196;48.926;8.964;2023-12-07T02:25:53;99486.34;;;-0.76;100.00
8318;BME280;4196;48.926;8.964;2023-12-07T02:28:40;99492.00;;;-0.63;100.00
8318;BME280;4196;48.926;8.964;2023-12-07T02:31:27;99490.47;;;-0.78;100.00
8318;BME280;4196;48.926;8.964;2023-12-07T02:34:14;99496.03;;;-0.85;100.00
8318;BME280;4196;48.926;8.964;2023-12-07T02:37:02;99498.94;;;-0.95;100.00
8318;BME280;4196;48.926;8.964;2023-12-07T02:39:51;99498.31;;;-1.07;100.00
8318;BME280;4196;48.926;8.964;2023-12-07T02:42:39;99475.31;;;-1.27;100.00
8318;BME280;4196;48.926;8.964;2023-12-07T02:45:27;99492.31;;;-1.26;100.00
8318;BME280;4196;48.926;8.964;2023-12-07T02:48:14;99498.50;;;-1.37;100.00
8318;BME280;4196;48.926;8.964;2023-12-07T02:51:00;99498.50;;;-1.37;100.00
8318;BME280;4196;48.926;8.964;2023-12-07T02:53:47;99491.06;;;-1.50;100.00
8318;BME280;4196;48.926;8.964;2023-12-07T02:56:33;99503.94;;;-1.47;100.00
8318;BME280;4196;48.926;8.964;2023-12-07T02:59:19;99499.63;;;-1.48;100.00
8318;BME280;4196;48.926;8.964;2023-12-07T03:02:06;99499.56;;;-1.50;100.00
8318;BME280;4196;48.926;8.964;2023-12-07T03:04:52;99500.19;;;-1.54;100.00
8318;BME280;4196;48.926;8.964;2023-12-07T03:07:39;99491.53;;;-1.57;100.00
8318;BME280;4196;48.926;8.964;2023-12-07T03:10:25;99505.03;;;-1.42;100.00
8318;BME280;4196;48.926;8.964;2023-12-07T03:13:12;99511.84;;;-1.41;100.00
8318;BME280;4196;48.926;8.964;2023-12-07T03:15:58;99512.72;;;-1.40;100.00
8318;BME280;4196;48.926;8.964;2023-12-07T03:18:45;99505.88;;;-1.41;100.00
8318;BME280;4196;48.926;8.964;2023-12-07T03:21:31;99494.38;;;-1.51;100.00
8318;BME280;4196;48.926;8.964;2023-12-07T03:24:18;99501.84;;;-1.38;100.00
8318;BME280;4196;48.926;8.964;2023-12-07T03:27:05;99494.19;;;-1.22;100.00
8318;BME280;4196;48.926;8.964;2023-12-07T03:29:51;99506.75;;;-1.08;100.00
8318;BME280;4196;48.926;8.964;2023-12-07T03:32:38;99510.94;;;-1.09;100.00
8318;BME280;4196;48.926;8.964;2023-12-07T03:35:24;99504.84;;;-1.12;100.00
8318;BME280;4196;48.926;8.964;2023-12-07T03:38:11;99511.44;;;-1.16;100.00
8318;BME280;4196;48.926;8.964;2023-12-07T03:40:57;99501.53;;;-1.28;100.00
8318;BME280;4196;48.926;8.964;2023-12-07T03:43:44;99496.31;;;-1.47;100.00
8318;BME280;4196;48.926;8.964;2023-12-07T03:46:30;99489.38;;;-1.66;100.00
8318;BME280;4196;48.926;8.964;2023-12-07T03:49:17;99515.03;;;-1.61;100.00
8318;BME280;4196;48.926;8.964;2023-12-07T03:52:04;99522.31;;;-1.67;100.00
8318;BME280;4196;48.926;8.964;2023-12-07T03:54:51;99499.97;;;-1.89;100.00
8318;BME280;4196;48.926;8.964;2023-12-07T03:57:38;99521.50;;;-1.83;100.00
8318;BME280;4196;48.926;8.964;2023-12-07T04:00:24;99522.88;;;-1.88;100.00
8318;BME280;4196;48.926;8.964;2023-12-07T04:03:11;99531.75;;;-1.96;100.00
8318;BME280;4196;48.926;8.964;2023-12-07T04:05:57;99527.47;;;-1.97;100.00
8318;BME280;4196;48.926;8.964;2023-12-07T04:08:44;99523.97;;;-1.99;100.00
8318;BME280;4196;48.926;8.964;2023-12-07T04:11:31;99535.72;;;-2.01;100.00
8318;BME280;4196;48.926;8.964;2023-12-07T04:14:17;99523.66;;;-2.05;100.00
8318;BME280;4196;48.926;8.964;2023-12-07T04:17:04;99525.22;;;-2.07;100.00
8318;BME280;4196;48.926;8.964;2023-12-07T04:19:50;99514.25;;;-2.23;100.00
8318;BME280;4196;48.926;8.964;2023-12-07T04:22:37;99532.53;;;-2.13;100.00
8318;BME280;4196;48.926;8.964;2023-12-07T04:25:23;99543.38;;;-2.16;100.00
8318;BME280;4196;48.926;8.964;2023-12-07T04:28:10;99510.59;;;-2.28;100.00
8318;BME280;4196;48.926;8.964;2023-12-07T04:30:56;99537.88;;;-2.24;100.00
8318;BME280;4196;48.926;8.964;2023-12-07T04:33:43;99535.94;;;-2.28;100.00
8318;BME280;4196;48.926;8.964;2023-12-07T04:36:29;99536.47;;;-2.33;100.00
8318;BME280;4196;48.926;8.964;2023-12-07T04:39:16;99524.59;;;-2.49;100.00
8318;BME280;4196;48.926;8.964;2023-12-07T04:42:03;99527.47;;;-2.43;100.00
8318;BME280;4196;48.926;8.964;2023-12-07T04:44:49;99477.41;;;-2.77;100.00
8318;BME280;4196;48.926;8.964;2023-12-07T04:47:36;99546.63;;;-2.48;100.00
8318;BME280;4196;48.926;8.964;2023-12-07T04:50:22;99551.69;;;-2.48;100.00
8318;BME280;4196;48.926;8.964;2023-12-07T04:53:09;99532.66;;;-2.56;100.00
8318;BME280;4196;48.926;8.964;2023-12-07T04:55:56;99536.66;;;-2.60;100.00
8318;BME280;4196;48.926;8.964;2023-12-07T04:58:42;99535.06;;;-2.58;100.00
8318;BME280;4196;48.926;8.964;2023-12-07T05:01:29;99469.19;;;-3.02;100.00
8318;BME280;4196;48.926;8.964;2023-12-07T05:04:15;99546.88;;;-2.58;100.00
8318;BME280;4196;48.926;8.964;2023-12-07T05:07:02;99547.44;;;-2.49;100.00
8318;BME280;4196;48.926;8.964;2023-12-07T05:09:50;99525.31;;;-2.67;100.00
8318;BME280;4196;48.926;8.964;2023-12-07T05:12:37;99546.13;;;-2.57;100.00
8318;BME280;4196;48.926;8.964;2023-12-07T05:15:23;99558.19;;;-2.53;100.00
8318;BME280;4196;48.926;8.964;2023-12-07T05:18:10;99550.84;;;-2.63;100.00
8318;BME280;4196;48.926;8.964;2023-12-07T05:20:57;99548.91;;;-2.68;100.00
8318;BME280;4196;48.926;8.964;2023-12-07T05:23:44;99543.16;;;-2.80;100.00
8318;BME280;4196;48.926;8.964;2023-12-07T05:26:30;99554.31;;;-2.76;100.00
8318;BME280;4196;48.926;8.964;2023-12-07T05:29:19;99535.19;;;-2.86;100.00
8318;BME280;4196;48.926;8.964;2023-12-07T05:32:05;99543.56;;;-2.87;100.00
8318;BME280;4196;48.926;8.964;2023-12-07T05:34:52;99550.75;;;-2.80;100.00
8318;BME280;4196;48.926;8.964;2023-12-07T05:37:38;99556.75;;;-2.78;100.00
8318;BME280;4196;48.926;8.964;2023-12-07T05:40:25;99559.34;;;-2.91;100.00
8318;BME280;4196;48.926;8.964;2023-12-07T05:43:12;99528.06;;;-3.06;100.00
8318;BME280;4196;48.926;8.964;2023-12-07T05:46:00;99558.41;;;-2.93;100.00
8318;BME280;4196;48.926;8.964;2023-12-07T05:48:47;99548.88;;;-2.97;100.00
8318;BME280;4196;48.926;8.964;2023-12-07T05:51:33;99561.88;;;-2.91;100.00
8318;BME280;4196;48.926;8.964;2023-12-07T05:54:20;99565.16;;;-2.79;100.00
8318;BME280;4196;48.926;8.964;2023-12-07T05:57:09;99559.72;;;-2.85;100.00
8318;BME280;4196;48.926;8.964;2023-12-07T05:59:56;99553.34;;;-2.93;100.00
8318;BME280;4196;48.926;8.964;2023-12-07T06:02:42;99548.88;;;-2.97;100.00
8318;BME280;4196;48.926;8.964;2023-12-07T06:05:29;99556.31;;;-3.00;100.00
8318;BME280;4196;48.926;8.964;2023-12-07T06:08:15;99551.41;;;-2.97;100.00
8318;BME280;4196;48.926;8.964;2023-12-07T06:11:02;99542.41;;;-3.07;100.00
8318;BME280;4196;48.926;8.964;2023-12-07T06:13:48;99562.69;;;-2.92;100.00
8318;BME280;4196;48.926;8.964;2023-12-07T06:16:34;99564.97;;;-2.97;100.00
8318;BME280;4196;48.926;8.964;2023-12-07T06:19:21;99559.34;;;-3.06;100.00
8318;BME280;4196;48.926;8.964;2023-12-07T06:22:08;99563.53;;;-3.06;100.00
8318;BME280;4196;48.926;8.964;2023-12-07T06:24:55;99567.03;;;-3.04;100.00
8318;BME280;4196;48.926;8.964;2023-12-07T06:27:42;99568.97;;;-3.00;100.00
8318;BME280;4196;48.926;8.964;2023-12-07T06:30:29;99555.84;;;-3.08;100.00
8318;BME280;4196;48.926;8.964;2023-12-07T06:33:15;99553.59;;;-3.03;100.00
8318;BME280;4196;48.926;8.964;2023-12-07T06:36:02;99560.06;;;-3.08;100.00
8318;BME280;4196;48.926;8.964;2023-12-07T06:38:49;99560.25;;;-3.05;100.00
8318;BME280;4196;48.926;8.964;2023-12-07T06:41:36;99558.28;;;-3.09;100.00
8318;BME280;4196;48.926;8.964;2023-12-07T06:44:22;99562.84;;;-3.04;100.00
8318;BME280;4196;48.926;8.964;2023-12-07T06:47:09;99563.19;;;-3.12;100.00
8318;BME280;4196;48.926;8.964;2023-12-07T06:49:55;99567.50;;;-2.97;100.00
8318;BME280;4196;48.926;8.964;2023-12-07T06:52:42;99543.06;;;-3.24;100.00
8318;BME280;4196;48.926;8.964;2023-12-07T06:55:29;99570.34;;;-3.20;100.00
8318;BME280;4196;48.926;8.964;2023-12-07T06:58:15;99569.16;;;-3.25;100.00
8318;BME280;4196;48.926;8.964;2023-12-07T07:01:02;99549.84;;;-3.38;100.00
8318;BME280;4196;48.926;8.964;2023-12-07T07:03:48;99568.22;;;-3.27;100.00
8318;BME280;4196;48.926;8.964;2023-12-07T07:06:35;99557.19;;;-3.28;100.00
8318;BME280;4196;48.926;8.964;2023-12-07T07:09:21;99558.53;;;-3.20;100.00
8318;BME280;4196;48.926;8.964;2023-12-07T07:12:08;99571.38;;;-3.17;100.00
8318;BME280;4196;48.926;8.964;2023-12-07T07:14:55;99562.53;;;-3.23;100.00
8318;BME280;4196;48.926;8.964;2023-12-07T07:17:42;99467.31;;;-3.77;100.00
8318;BME280;4196;48.926;8.964;2023-12-07T07:20:28;99566.13;;;-3.20;100.00
8318;BME280;4196;48.926;8.964;2023-12-07T07:23:15;99546.03;;;-3.31;100.00
8318;BME280;4196;48.926;8.964;2023-12-07T07:26:01;99568.25;;;-3.12;100.00
8318;BME280;4196;48.926;8.964;2023-12-07T07:28:48;99575.25;;;-3.08;100.00
8318;BME280;4196;48.926;8.964;2023-12-07T07:31:36;99548.13;;;-3.24;100.00
8318;BME280;4196;48.926;8.964;2023-12-07T07:34:22;99558.00;;;-3.14;100.00
8318;BME280;4196;48.926;8.964;2023-12-07T07:37:09;99549.53;;;-3.14;100.00
8318;BME280;4196;48.926;8.964;2023-12-07T07:39:56;99576.22;;;-2.92;100.00
8318;BME280;4196;48.926;8.964;2023-12-07T07:42:43;99564.88;;;-2.98;100.00
8318;BME280;4196;48.926;8.964;2023-12-07T07:45:29;99585.25;;;-2.82;100.00
8318;BME280;4196;48.926;8.964;2023-12-07T07:48:15;99522.47;;;-3.16;100.00
8318;BME280;4196;48.926;8.964;2023-12-07T07:51:03;99584.91;;;-2.73;100.00
8318;BME280;4196;48.926;8.964;2023-12-07T07:53:50;99593.69;;;-2.53;100.00
8318;BME280;4196;48.926;8.964;2023-12-07T07:56:36;99595.41;;;-2.52;100.00
8318;BME280;4196;48.926;8.964;2023-12-07T07:59:23;99582.81;;;-2.65;100.00
8318;BME280;4196;48.926;8.964;2023-12-07T08:02:09;99591.81;;;-2.56;100.00
8318;BME280;4196;48.926;8.964;2023-12-07T08:04:56;99592.63;;;-2.57;100.00
8318;BME280;4196;48.926;8.964;2023-12-07T08:07:43;99599.97;;;-2.47;100.00
8318;BME280;4196;48.926;8.964;2023-12-07T08:10:30;99598.22;;;-2.33;100.00
8318;BME280;4196;48.926;8.964;2023-12-07T08:13:16;99594.19;;;-2.44;100.00
8318;BME280;4196;48.926;8.964;2023-12-07T08:16:07;99600.31;;;-2.40;100.00
8318;BME280;4196;48.926;8.964;2023-12-07T08:18:55;99574.94;;;-2.55;100.00
8318;BME280;4196;48.926;8.964;2023-12-07T08:21:42;99592.44;;;-2.45;100.00
8318;BME280;4196;48.926;8.964;2023-12-07T08:24:28;99540.00;;;-2.61;100.00
8318;BME280;4196;48.926;8.964;2023-12-07T08:27:15;99595.06;;;-2.29;100.00
8318;BME280;4196;48.926;8.964;2023-12-07T08:30:02;99599.44;;;-2.26;100.00
8318;BME280;4196;48.926;8.964;2023-12-07T08:32:49;99601.25;;;-2.09;100.00
8318;BME280;4196;48.926;8.964;2023-12-07T08:35:35;99601.50;;;-2.04;100.00
8318;BME280;4196;48.926;8.964;2023-12-07T08:38:22;99589.91;;;-1.84;100.00
8318;BME280;4196;48.926;8.964;2023-12-07T08:41:09;99580.91;;;-1.79;100.00
8318;BME280;4196;48.926;8.964;2023-12-07T08:43:55;99575.72;;;-1.81;100.00
8318;BME280;4196;48.926;8.964;2023-12-07T08:46:42;99570.81;;;-1.78;100.00
8318;BME280;4196;48.926;8.964;2023-12-07T08:49:31;99561.94;;;-1.86;100.00
8318;BME280;4196;48.926;8.964;2023-12-07T08:52:18;99569.88;;;-1.80;100.00
8318;BME280;4196;48.926;8.964;2023-12-07T08:55:21;99566.50;;;-1.64;100.00
8318;BME280;4196;48.926;8.964;2023-12-07T08:58:07;99561.53;;;-1.77;100.00
8318;BME280;4196;48.926;8.964;2023-12-07T09:00:54;99561.34;;;-1.65;100.00
8318;BME280;4196;48.926;8.964;2023-12-07T09:03:40;99554.66;;;-1.63;100.00
8318;BME280;4196;48.926;8.964;2023-12-07T09:06:27;99551.13;;;-1.51;100.00
8318;BME280;4196;48.926;8.964;2023-12-07T09:09:14;99555.66;;;-1.12;100.00
8318;BME280;4196;48.926;8.964;2023-12-07T09:12:01;99555.66;;;-1.12;100.00
8318;BME280;4196;48.926;8.964;2023-12-07T09:14:47;99547.72;;;-1.18;100.00
8318;BME280;4196;48.926;8.964;2023-12-07T09:17:34;99557.09;;;-1.17;100.00
8318;BME280;4196;48.926;8.964;2023-12-07T09:20:21;99556.28;;;-1.00;100.00
8318;BME280;4196;48.926;8.964;2023-12-07T09:23:10;99563.03;;;-1.01;100.00
8318;BME280;4196;48.926;8.964;2023-12-07T09:25:56;99545.94;;;-0.87;100.00
8318;BME280;4196;48.926;8.964;2023-12-07T09:28:43;99519.44;;;-0.92;100.00
8318;BME280;4196;48.926;8.964;2023-12-07T09:31:30;99538.31;;;-0.87;100.00
8318;BME280;4196;48.926;8.964;2023-12-07T09:34:16;99547.78;;;-0.84;100.00
8318;BME280;4196;48.926;8.964;2023-12-07T09:37:11;99548.44;;;-0.70;100.00
8318;BME280;4196;48.926;8.964;2023-12-07T09:40:00;99544.69;;;-0.61;100.00
8318;BME280;4196;48.926;8.964;2023-12-07T09:42:47;99545.50;;;-0.62;100.00
8318;BME280;4196;48.926;8.964;2023-12-07T09:45:34;99545.06;;;-0.53;100.00
8318;BME280;4196;48.926;8.964;2023-12-07T09:48:21;99539.94;;;-0.37;100.00
8318;BME280;4196;48.926;8.964;2023-12-07T09:51:09;99544.47;;;-0.13;100.00
8318;BME280;4196;48.926;8.964;2023-12-07T09:53:57;99543.50;;;-0.15;100.00
8318;BME280;4196;48.926;8.964;2023-12-07T09:56:45;99539.88;;;0.15;100.00
8318;BME280;4196;48.926;8.964;2023-12-07T09:59:32;99516.09;;;0.15;100.00
8318;BME280;4196;48.926;8.964;2023-12-07T10:02:18;99516.69;;;0.29;100.00
8318;BME280;4196;48.926;8.964;2023-12-07T10:05:06;99509.16;;;0.12;100.00
8318;BME280;4196;48.926;8.964;2023-12-07T10:07:53;99512.13;;;0.21;100.00
8318;BME280;4196;48.926;8.964;2023-12-07T10:10:40;99502.59;;;0.17;100.00
8318;BME280;4196;48.926;8.964;2023-12-07T10:13:29;99498.47;;;0.39;100.00
8318;BME280;4196;48.926;8.964;2023-12-07T10:16:16;99503.44;;;0.55;100.00
8318;BME280;4196;48.926;8.964;2023-12-07T10:19:14;99496.16;;;0.63;100.00
8318;BME280;4196;48.926;8.964;2023-12-07T10:22:17;99473.22;;;0.63;100.00
8318;BME280;4196;48.926;8.964;2023-12-07T10:25:04;99490.84;;;0.78;100.00
8318;BME280;4196;48.926;8.964;2023-12-07T10:27:51;99479.22;;;0.84;100.00
8318;BME280;4196;48.926;8.964;2023-12-07T10:30:39;99471.19;;;1.15;100.00
8318;BME280;4196;48.926;8.964;2023-12-07T10:33:29;99462.84;;;1.19;100.00
8318;BME280;4196;48.926;8.964;2023-12-07T10:36:16;99477.03;;;1.34;100.00
8318;BME280;4196;48.926;8.964;2023-12-07T10:39:03;99445.34;;;1.29;100.00
8318;BME280;4196;48.926;8.964;2023-12-07T10:42:02;99484.50;;;1.50;100.00
8318;BME280;4196;48.926;8.964;2023-12-07T10:44:50;99480.34;;;1.52;100.00
8318;BME280;4196;48.926;8.964;2023-12-07T10:47:38;99480.63;;;1.60;100.00
8318;BME280;4196;48.926;8.964;2023-12-07T10:50:26;99471.91;;;1.76;100.00
8318;BME280;4196;48.926;8.964;2023-12-07T10:53:23;99464.31;;;2.00;100.00
8318;BME280;4196;48.926;8.964;2023-12-07T10:56:29;99472.00;;;2.24;100.00
8318;BME280;4196;48.926;8.964;2023-12-07T10:59:19;99464.03;;;2.14;100.00
8318;BME280;4196;48.926;8.964;2023-12-07T11:02:16;99451.81;;;2.30;100.00
8318;BME280;4196;48.926;8.964;2023-12-07T11:05:07;99440.72;;;2.29;100.00
8318;BME280;4196;48.926;8.964;2023-12-07T11:14:13;99403.50;;;2.36;100.00
8318;BME280;4196;48.926;8.964;2023-12-07T11:17:03;99401.13;;;2.66;100.00
8318;BME280;4196;48.926;8.964;2023-12-07T11:19:50;99402.91;;;2.69;100.00
8318;BME280;4196;48.926;8.964;2023-12-07T11:22:40;99391.56;;;2.86;100.00
8318;BME280;4196;48.926;8.964;2023-12-07T11:25:27;99397.59;;;2.88;100.00
8318;BME280;4196;48.926;8.964;2023-12-07T11:28:14;99388.09;;;2.84;100.00
8318;BME280;4196;48.926;8.964;2023-12-07T11:31:02;99377.16;;;2.88;100.00
8318;BME280;4196;48.926;8.964;2023-12-07T11:33:49;99377.44;;;2.97;100.00
8318;BME280;4196;48.926;8.964;2023-12-07T11:36:36;99368.13;;;2.99;100.00
8318;BME280;4196;48.926;8.964;2023-12-07T11:39:24;99345.91;;;2.98;100.00
8318;BME280;4196;48.926;8.964;2023-12-07T11:42:17;99370.50;;;3.20;100.00
8318;BME280;4196;48.926;8.964;2023-12-07T11:45:04;99361.22;;;3.24;100.00
8318;BME280;4196;48.926;8.964;2023-12-07T11:48:09;99358.09;;;3.32;100.00
8318;BME280;4196;48.926;8.964;2023-12-07T11:51:03;99351.75;;;3.48;100.00
8318;BME280;4196;48.926;8.964;2023-12-07T11:53:50;99333.72;;;3.45;99.21
8318;BME280;4196;48.926;8.964;2023-12-07T11:56:37;99351.94;;;3.83;95.06
8318;BME280;4196;48.926;8.964;2023-12-07T11:59:24;99337.38;;;3.82;91.37
8318;BME280;4196;48.926;8.964;2023-12-07T12:02:19;99335.97;;;3.93;91.45
8318;BME280;4196;48.926;8.964;2023-12-07T12:05:06;99322.88;;;3.82;89.49
8318;BME280;4196;48.926;8.964;2023-12-07T12:07:53;99317.50;;;3.73;91.23
8318;BME280;4196;48.926;8.964;2023-12-07T12:10:41;99313.25;;;3.74;90.98
8318;BME280;4196;48.926;8.964;2023-12-07T12:13:36;99307.88;;;3.65;89.50
8318;BME280;4196;48.926;8.964;2023-12-07T12:16:23;99310.59;;;3.71;91.27
8318;BME280;4196;48.926;8.964;2023-12-07T12:19:10;99297.69;;;3.68;88.32
8318;BME280;4196;48.926;8.964;2023-12-07T12:22:02;99292.00;;;3.78;86.67
8318;BME280;4196;48.926;8.964;2023-12-07T12:24:52;99279.84;;;3.71;84.01
8318;BME280;4196;48.926;8.964;2023-12-07T12:27:39;99284.50;;;3.84;81.61
8318;BME280;4196;48.926;8.964;2023-12-07T12:30:27;99278.72;;;3.91;83.99
8318;BME280;4196;48.926;8.964;2023-12-07T12:33:13;99268.78;;;4.02;82.68
8318;BME280;4196;48.926;8.964;2023-12-07T12:36:04;99256.31;;;4.16;80.42
8318;BME280;4196;48.926;8.964;2023-12-07T12:38:53;99246.13;;;4.19;78.87
8318;BME280;4196;48.926;8.964;2023-12-07T12:41:40;99263.41;;;4.26;76.84
8318;BME280;4196;48.926;8.964;2023-12-07T12:44:26;99246.91;;;4.15;75.95
8318;BME280;4196;48.926;8.964;2023-12-07T12:47:22;99252.06;;;4.16;76.07
8318;BME280;4196;48.926;8.964;2023-12-07T12:53:17;99234.25;;;4.21;74.63
8318;BME280;4196;48.926;8.964;2023-12-07T12:56:04;99247.44;;;4.36;73.26
8318;BME280;4196;48.926;8.964;2023-12-07T12:58:52;99249.41;;;4.46;72.51
8318;BME280;4196;48.926;8.964;2023-12-07T13:01:39;99235.00;;;4.51;73.11
8318;BME280;4196;48.926;8.964;2023-12-07T13:04:26;99217.16;;;4.56;71.73
8318;BME280;4196;48.926;8.964;2023-12-07T13:07:13;99239.72;;;4.69;68.98
8318;BME280;4196;48.926;8.964;2023-12-07T13:09:59;99231.59;;;4.52;69.93
8318;BME280;4196;48.926;8.964;2023-12-07T13:12:46;99225.31;;;4.40;68.96
8318;BME280;4196;48.926;8.964;2023-12-07T13:15:32;99230.56;;;4.44;69.23
8318;BME280;4196;48.926;8.964;2023-12-07T13:18:19;99209.78;;;4.33;67.58
8318;BME280;4196;48.926;8.964;2023-12-07T13:21:06;99212.16;;;4.26;68.07
8318;BME280;4196;48.926;8.964;2023-12-07T13:23:53;99236.06;;;4.25;67.81
8318;BME280;4196;48.926;8.964;2023-12-07T13:26:39;99235.03;;;4.18;68.29
8318;BME280;4196;48.926;8.964;2023-12-07T13:29:25;99233.56;;;4.28;69.29
8318;BME280;4196;48.926;8.964;2023-12-07T13:32:21;99227.31;;;4.17;68.07
8318;BME280;4196;48.926;8.964;2023-12-07T13:35:08;99241.19;;;4.25;69.00
8318;BME280;4196;48.926;8.964;2023-12-07T13:37:55;99242.06;;;4.27;69.40
8318;BME280;4196;48.926;8.964;2023-12-07T13:40:42;99239.66;;;4.31;69.58
8318;BME280;4196;48.926;8.964;2023-12-07T13:43:28;99242.31;;;4.36;70.73
8318;BME280;4196;48.926;8.964;2023-12-07T13:46:18;99236.16;;;4.29;69.63
8318;BME280;4196;48.926;8.964;2023-12-07T13:49:05;99226.69;;;4.27;70.20
8318;BME280;4196;48.926;8.964;2023-12-07T13:51:57;99228.63;;;4.35;70.62
8318;BME280;4196;48.926;8.964;2023-12-07T13:54:43;99222.69;;;4.38;69.95
8318;BME280;4196;48.926;8.964;2023-12-07T13:57:40;99225.41;;;4.44;70.62
8318;BME280;4196;48.926;8.964;2023-12-07T14:00:26;99219.78;;;4.57;69.93
8318;BME280;4196;48.926;8.964;2023-12-07T14:03:13;99212.09;;;4.97;67.74
8318;BME280;4196;48.926;8.964;2023-12-07T14:06:00;99196.75;;;5.83;66.06
8318;BME280;4196;48.926;8.964;2023-12-07T14:09:00;99202.63;;;6.23;63.91
8318;BME280;4196;48.926;8.964;2023-12-07T14:11:47;99210.53;;;6.35;63.12
8318;BME280;4196;48.926;8.964;2023-12-07T14:14:34;99214.13;;;5.93;64.61
8318;BME280;4196;48.926;8.964;2023-12-07T14:17:21;99192.41;;;5.35;66.25
8318;BME280;4196;48.926;8.964;2023-12-07T14:20:22;99183.34;;;4.72;67.31
8318;BME280;4196;48.926;8.964;2023-12-07T14:23:31;99224.91;;;4.57;68.49
8318;BME280;4196;48.926;8.964;2023-12-07T14:26:18;99216.53;;;4.30;68.84
8318;BME280;4196;48.926;8.964;2023-12-07T14:29:04;99212.41;;;4.02;69.93
8318;BME280;4196;48.926;8.964;2023-12-07T14:31:51;99206.88;;;3.86;71.48
8318;BME280;4196;48.926;8.964;2023-12-07T14:34:37;99205.97;;;3.53;72.92
8318;BME280;4196;48.926;8.964;2023-12-07T14:37:24;99202.75;;;3.30;75.46
8318;BME280;4196;48.926;8.964;2023-12-07T14:40:14;99190.28;;;3.10;77.12
8318;BME280;4196;48.926;8.964;2023-12-07T14:43:03;99172.72;;;2.94;78.68
8318;BME280;4196;48.926;8.964;2023-12-07T14:45:50;99162.50;;;2.94;78.45
8318;BME280;4196;48.926;8.964;2023-12-07T14:48:37;99173.94;;;2.77;78.75
8318;BME280;4196;48.926;8.964;2023-12-07T14:51:23;99152.81;;;2.55;79.68
8318;BME280;4196;48.926;8.964;2023-12-07T14:54:10;99166.69;;;2.63;79.89
8318;BME280;4196;48.926;8.964;2023-12-07T14:57:00;99157.47;;;2.40;81.44
8318;BME280;4196;48.926;8.964;2023-12-07T14:59:49;99169.22;;;2.35;83.83
8318;BME280;4196;48.926;8.964;2023-12-07T15:02:36;99160.69;;;2.07;84.91
8318;BME280;4196;48.926;8.964;2023-12-07T15:05:22;99161.28;;;2.00;85.75
8318;BME280;4196;48.926;8.964;2023-12-07T15:08:09;99142.75;;;1.80;87.08
8318;BME280;4196;48.926;8.964;2023-12-07T15:10:57;99124.31;;;1.63;87.95
8318;BME280;4196;48.926;8.964;2023-12-07T15:13:43;99128.13;;;1.51;88.77
8318;BME280;4196;48.926;8.964;2023-12-07T15:16:30;99130.53;;;1.46;91.73